Time;durP1;ratioP1;P1;durP2;ratioP2;P2;SDS_P1;SDS_P2;PMS_P1;PMS_P2;Temp;Humidity;BMP_temperature;BMP_pressure;BME280_temperature;BME280_humidity;BME280_pressure;Samples;Min_cycle;Max_cycle;Signal;HPM_P1;HPM_P2
2023/12/06 00:01:31;;;;;;;0.55;0.55;;;6.90;69.50;;;;;;4991589;28;20576;-72
2023/12/06 00:03:56;;;;;;;0.40;0.40;;;6.90;69.50;;;;;;4973865;28;20121;-72
2023/12/06 00:06:24;;;;;;;0.47;0.47;;;6.90;69.50;;;;;;4991512;28;20068;-72
2023/12/06 00:08:52;;;;;;;0.90;0.80;;;6.90;69.30;;;;;;4991385;28;20034;-71
2023/12/06 00:11:18;;;;;;;0.60;0.60;;;6.80;69.30;;;;;;4973953;28;20125;-72
2023/12/06 00:13:44;;;;;;;0.88;0.88;;;6.80;69.20;;;;;;4973855;28;20042;-71
2023/12/06 00:16:09;;;;;;;0.50;0.50;;;6.80;69.20;;;;;;4991657;28;20508;-72
2023/12/06 00:18:34;;;;;;;2.08;0.77;;;6.70;69.00;;;;;;4973864;28;20480;-72
2023/12/06 00:21:00;;;;;;;0.38;0.38;;;6.70;69.00;;;;;;4991171;28;20113;-71
2023/12/06 00:23:25;;;;;;;0.50;0.50;;;6.70;69.00;;;;;;4973700;28;20405;-71
2023/12/06 00:25:51;;;;;;;0.77;0.75;;;6.60;69.00;;;;;;4994412;28;20034;-71
2023/12/06 00:28:16;;;;;;;0.43;0.43;;;6.60;68.90;;;;;;4994733;28;20031;-71
2023/12/06 00:30:42;;;;;;;0.40;0.40;;;6.60;69.10;;;;;;5013925;28;20029;-73
2023/12/06 00:33:08;;;;;;;2.35;0.98;;;6.60;69.20;;;;;;5014721;28;20057;-72
2023/12/06 00:35:33;;;;;;;0.50;0.50;;;6.60;69.20;;;;;;5014553;28;20018;-72
2023/12/06 00:37:59;;;;;;;1.05;1.02;;;6.50;69.00;;;;;;5014554;28;20461;-72
2023/12/06 00:40:24;;;;;;;0.98;0.98;;;6.50;68.90;;;;;;5014314;28;20489;-72
2023/12/06 00:42:50;;;;;;;0.85;0.85;;;6.50;69.00;;;;;;4996730;28;20056;-72
2023/12/06 00:45:15;;;;;;;0.40;0.40;;;6.50;69.10;;;;;;5014354;28;20049;-72
2023/12/06 00:47:41;;;;;;;0.50;0.50;;;6.50;69.20;;;;;;4997510;28;20046;-72
2023/12/06 00:50:07;;;;;;;0.50;0.50;;;6.50;69.30;;;;;;5014069;28;20363;-70
2023/12/06 00:52:32;;;;;;;0.60;0.60;;;6.50;69.50;;;;;;5014233;28;20057;-71
2023/12/06 00:54:58;;;;;;;0.50;0.50;;;6.50;69.50;;;;;;4996310;28;20061;-71
2023/12/06 00:57:23;;;;;;;0.60;0.60;;;6.50;69.50;;;;;;5013940;28;20096;-72
2023/12/06 00:59:49;;;;;;;1.10;1.00;;;6.50;69.30;;;;;;5013898;28;20026;-72
2023/12/06 01:02:14;;;;;;;0.50;0.50;;;6.50;69.30;;;;;;5014467;28;20104;-72
2023/12/06 01:04:40;;;;;;;0.60;0.60;;;6.50;69.10;;;;;;5013834;28;20056;-72
2023/12/06 01:07:05;;;;;;;2.30;0.98;;;6.50;69.10;;;;;;5014161;28;20084;-72
2023/12/06 01:09:31;;;;;;;0.68;0.68;;;6.40;69.20;;;;;;5014264;28;20033;-72
2023/12/06 01:11:59;;;;;;;0.70;0.70;;;6.40;69.30;;;;;;5013823;28;20108;-72
2023/12/06 01:14:25;;;;;;;0.80;0.80;;;6.40;69.20;;;;;;5013711;28;20041;-72
2023/12/06 01:16:51;;;;;;;0.50;0.50;;;6.40;69.20;;;;;;5014131;28;20417;-73
2023/12/06 01:19:16;;;;;;;0.80;0.80;;;6.40;69.20;;;;;;4996615;28;20061;-72
2023/12/06 01:21:42;;;;;;;0.68;0.68;;;6.40;69.20;;;;;;5013656;28;20549;-73
2023/12/06 01:24:08;;;;;;;0.85;0.85;;;6.40;69.20;;;;;;5013557;28;20033;-72
2023/12/06 01:26:34;;;;;;;1.25;1.20;;;6.40;69.20;;;;;;5013451;28;20112;-72
2023/12/06 01:29:03;;;;;;;0.95;0.95;;;6.40;69.30;;;;;;5013326;28;20436;-72
2023/12/06 01:31:28;;;;;;;0.80;0.80;;;6.40;69.40;;;;;;5013472;28;20436;-72
2023/12/06 01:33:54;;;;;;;0.57;0.57;;;6.40;69.50;;;;;;4995815;28;20018;-72
2023/12/06 01:36:19;;;;;;;0.70;0.70;;;6.40;69.40;;;;;;5013702;28;20026;-73
2023/12/06 01:38:45;;;;;;;1.25;1.15;;;6.40;69.50;;;;;;5013057;28;20037;-72
2023/12/06 01:41:11;;;;;;;0.50;0.50;;;6.40;69.50;;;;;;5013369;28;20084;-72
2023/12/06 01:43:42;;;;;;;0.50;0.50;;;6.40;69.50;;;;;;5013384;28;20497;-72
2023/12/06 01:46:07;;;;;;;0.80;0.80;;;6.50;69.60;;;;;;5013362;28;20073;-71
2023/12/06 01:48:33;;;;;;;0.45;0.45;;;6.50;69.40;;;;;;5013042;28;20811;-71
2023/12/06 01:50:59;;;;;;;0.60;0.60;;;6.50;69.40;;;;;;5013172;28;20084;-71
2023/12/06 01:53:24;;;;;;;0.50;0.50;;;6.50;69.40;;;;;;5013283;28;20544;-71
2023/12/06 01:55:50;;;;;;;0.40;0.40;;;6.50;69.40;;;;;;5010636;28;20038;-71
2023/12/06 01:58:17;;;;;;;0.60;0.60;;;6.50;69.20;;;;;;5007114;28;20034;-74
2023/12/06 02:00:44;;;;;;;0.50;0.50;;;6.50;69.30;;;;;;4995412;28;20190;-75
2023/12/06 02:03:09;;;;;;;0.50;0.50;;;6.50;69.30;;;;;;4995987;28;20018;-74
2023/12/06 02:05:35;;;;;;;1.15;1.15;;;6.50;69.40;;;;;;5013285;28;20038;-75
2023/12/06 02:08:02;;;;;;;0.50;0.50;;;6.50;69.40;;;;;;5013741;28;20046;-75
2023/12/06 02:10:28;;;;;;;0.77;0.77;;;6.50;69.40;;;;;;5017338;28;20046;-74
2023/12/06 02:12:54;;;;;;;0.60;0.60;;;6.50;69.40;;;;;;5016399;28;20041;-74
2023/12/06 02:15:21;;;;;;;0.90;0.90;;;6.40;69.20;;;;;;5014758;28;20038;-74
2023/12/06 02:17:46;;;;;;;0.68;0.68;;;6.40;68.70;;;;;;5013424;28;20018;-75
2023/12/06 02:20:12;;;;;;;2.75;1.15;;;6.30;68.60;;;;;;5005913;28;20037;-74
2023/12/06 02:22:38;;;;;;;0.60;0.60;;;6.30;68.40;;;;;;5000315;28;20042;-74
2023/12/06 02:25:09;;;;;;;0.70;0.70;;;6.20;68.30;;;;;;4996573;28;20034;-74
2023/12/06 02:27:35;;;;;;;0.60;0.60;;;6.20;68.30;;;;;;4979251;28;20038;-74
2023/12/06 02:30:00;;;;;;;0.98;0.98;;;6.20;68.30;;;;;;4996229;28;20042;-74
2023/12/06 02:32:26;;;;;;;0.50;0.50;;;6.10;68.30;;;;;;4978388;28;20359;-74
2023/12/06 02:34:53;;;;;;;0.90;0.90;;;6.10;68.30;;;;;;4995424;28;20030;-74
2023/12/06 02:37:22;;;;;;;0.50;0.50;;;6.00;68.40;;;;;;4995221;28;20023;-73
2023/12/06 02:39:49;;;;;;;0.50;0.50;;;6.00;68.40;;;;;;4994425;28;20041;-74
2023/12/06 02:42:15;;;;;;;1.33;1.23;;;6.00;68.50;;;;;;4994604;28;20034;-75
2023/12/06 02:44:40;;;;;;;1.95;1.77;;;6.00;68.50;;;;;;4994083;28;20039;-74
2023/12/06 02:47:06;;;;;;;0.50;0.50;;;6.00;68.50;;;;;;4993893;28;20470;-74
2023/12/06 02:49:32;;;;;;;0.52;0.52;;;6.00;68.60;;;;;;4993868;28;20069;-74
2023/12/06 02:51:57;;;;;;;0.65;0.65;;;5.90;68.50;;;;;;4993905;28;20026;-74
2023/12/06 02:54:23;;;;;;;0.60;0.60;;;5.90;68.50;;;;;;4976434;28;20041;-75
2023/12/06 02:56:48;;;;;;;0.60;0.60;;;5.90;68.60;;;;;;5004426;28;20038;-73
2023/12/06 02:59:14;;;;;;;1.58;1.40;;;5.80;68.70;;;;;;5012970;28;20034;-73
2023/12/06 03:01:46;;;;;;;1.23;1.15;;;5.80;68.70;;;;;;5013660;28;20074;-74
2023/12/06 03:04:11;;;;;;;1.00;1.00;;;5.80;68.80;;;;;;5014725;28;20537;-75
2023/12/06 03:06:37;;;;;;;0.60;0.60;;;5.80;68.70;;;;;;5012975;28;20072;-71
2023/12/06 03:09:02;;;;;;;0.77;0.77;;;5.80;68.70;;;;;;5013975;28;20113;-73
2023/12/06 03:11:28;;;;;;;0.77;0.77;;;5.80;68.80;;;;;;4996422;28;20366;-74
2023/12/06 03:13:53;;;;;;;1.15;1.15;;;5.80;68.70;;;;;;5013721;28;20030;-74
2023/12/06 03:16:19;;;;;;;0.43;0.43;;;5.80;68.80;;;;;;5013508;28;20466;-74
2023/12/06 03:18:44;;;;;;;0.60;0.60;;;5.80;68.90;;;;;;5013794;28;20117;-75
2023/12/06 03:21:10;;;;;;;0.52;0.52;;;5.80;68.90;;;;;;5013044;28;20069;-75
2023/12/06 03:23:35;;;;;;;0.90;0.90;;;5.80;68.90;;;;;;5012923;28;20026;-75
2023/12/06 03:26:02;;;;;;;0.60;0.60;;;5.80;68.90;;;;;;5013003;28;20026;-74
2023/12/06 03:28:28;;;;;;;0.40;0.40;;;5.80;68.90;;;;;;5012696;28;20470;-75
2023/12/06 03:30:53;;;;;;;0.80;0.80;;;5.80;68.90;;;;;;5012846;28;20029;-75
2023/12/06 03:33:19;;;;;;;0.70;0.70;;;5.80;69.00;;;;;;5013082;28;20030;-75
2023/12/06 03:35:44;;;;;;;0.60;0.60;;;5.80;68.90;;;;;;5012527;28;20469;-75
2023/12/06 03:38:10;;;;;;;0.50;0.50;;;5.80;68.90;;;;;;5012713;28;20010;-75
2023/12/06 03:40:36;;;;;;;0.60;0.60;;;5.80;69.00;;;;;;5012722;28;20485;-76
2023/12/06 03:43:01;;;;;;;0.73;0.73;;;5.80;68.90;;;;;;5012650;28;20064;-75
2023/12/06 03:45:27;;;;;;;0.50;0.50;;;5.80;68.90;;;;;;4994123;28;20065;-75
2023/12/06 03:47:52;;;;;;;0.52;0.52;;;5.80;68.90;;;;;;5013328;28;20121;-74
2023/12/06 03:50:17;;;;;;;0.80;0.80;;;5.80;68.80;;;;;;5012157;28;20034;-75
2023/12/06 03:52:43;;;;;;;0.70;0.70;;;5.80;68.90;;;;;;5012609;28;20450;-74
2023/12/06 03:55:08;;;;;;;0.50;0.50;;;5.80;68.80;;;;;;5012223;28;20044;-75
2023/12/06 03:57:34;;;;;;;1.10;1.05;;;5.80;68.80;;;;;;4977653;28;20034;-74
2023/12/06 03:59:59;;;;;;;0.50;0.50;;;5.80;68.80;;;;;;4994573;28;20142;-74
2023/12/06 04:02:25;;;;;;;0.60;0.60;;;5.80;68.80;;;;;;4996885;28;20117;-75
2023/12/06 04:04:50;;;;;;;0.50;0.50;;;5.80;68.80;;;;;;4996646;28;20073;-74
2023/12/06 04:07:16;;;;;;;0.70;0.70;;;5.80;68.80;;;;;;4996446;28;20049;-74
2023/12/06 04:09:41;;;;;;;0.50;0.50;;;5.80;68.80;;;;;;4996280;28;20030;-75
2023/12/06 04:12:08;;;;;;;0.70;0.70;;;5.80;68.80;;;;;;4996703;28;20042;-75
2023/12/06 04:14:33;;;;;;;0.57;0.57;;;5.90;68.80;;;;;;4996329;28;20019;-75
2023/12/06 04:16:58;;;;;;;0.40;0.40;;;5.90;68.80;;;;;;4996507;28;20041;-75
2023/12/06 04:19:25;;;;;;;1.65;0.98;;;5.90;68.80;;;;;;4996425;28;20390;-75
2023/12/06 04:21:51;;;;;;;0.50;0.50;;;5.90;68.70;;;;;;4995686;28;20478;-75
2023/12/06 04:24:16;;;;;;;0.60;0.60;;;5.90;68.80;;;;;;4995826;28;20030;-75
2023/12/06 04:26:42;;;;;;;0.50;0.50;;;6.00;68.70;;;;;;4996100;28;20044;-75
2023/12/06 04:29:07;;;;;;;0.40;0.40;;;5.90;68.70;;;;;;4996051;28;20647;-76
2023/12/06 04:31:33;;;;;;;0.60;0.60;;;5.90;68.70;;;;;;4996093;28;20034;-75
2023/12/06 04:33:59;;;;;;;0.60;0.60;;;5.90;68.60;;;;;;4995968;28;20026;-75
2023/12/06 04:36:24;;;;;;;0.60;0.60;;;5.90;68.70;;;;;;4978391;28;20030;-75
2023/12/06 04:38:50;;;;;;;0.60;0.60;;;5.90;68.60;;;;;;4996207;28;20037;-75
2023/12/06 04:41:15;;;;;;;0.88;0.88;;;5.90;68.60;;;;;;4978637;28;20034;-75
2023/12/06 04:43:41;;;;;;;0.50;0.50;;;5.90;68.70;;;;;;4996313;28;20097;-74
2023/12/06 04:46:06;;;;;;;0.60;0.60;;;5.90;68.80;;;;;;4995863;28;20109;-75
2023/12/06 04:48:31;;;;;;;4.47;1.20;;;5.90;68.70;;;;;;4978474;28;20371;-75
2023/12/06 04:50:57;;;;;;;0.43;0.43;;;5.90;68.80;;;;;;4996073;28;20030;-72
2023/12/06 04:53:22;;;;;;;1.00;1.00;;;5.90;68.80;;;;;;4994656;28;20126;-71
2023/12/06 04:55:48;;;;;;;1.02;1.02;;;5.90;68.70;;;;;;4996933;28;20034;-71
2023/12/06 04:58:13;;;;;;;0.52;0.52;;;5.90;68.80;;;;;;4996536;28;20401;-71
2023/12/06 05:00:39;;;;;;;0.57;0.57;;;5.90;68.80;;;;;;5014259;28;20069;-71
2023/12/06 05:03:05;;;;;;;0.52;0.52;;;5.80;68.70;;;;;;5014452;28;20061;-71
2023/12/06 05:05:30;;;;;;;0.88;0.88;;;5.90;68.70;;;;;;5014381;28;20472;-71
2023/12/06 05:07:56;;;;;;;1.05;1.02;;;5.80;68.70;;;;;;5014362;28;20521;-71
2023/12/06 05:10:22;;;;;;;0.88;0.88;;;5.80;68.80;;;;;;5013436;28;20026;-71
2023/12/06 05:12:47;;;;;;;0.60;0.60;;;5.80;68.80;;;;;;5014152;28;20026;-70
2023/12/06 05:15:13;;;;;;;0.50;0.50;;;5.80;68.80;;;;;;5013941;28;20026;-70
2023/12/06 05:17:39;;;;;;;2.67;2.47;;;5.80;68.90;;;;;;5013994;28;20454;-71
2023/12/06 05:20:06;;;;;;;1.02;1.02;;;5.80;68.90;;;;;;5014035;28;20532;-71
2023/12/06 05:22:31;;;;;;;0.85;0.85;;;5.80;68.90;;;;;;5014518;28;20045;-71
2023/12/06 05:24:57;;;;;;;0.50;0.50;;;5.80;68.90;;;;;;5013739;28;20034;-71
2023/12/06 05:27:22;;;;;;;0.57;0.57;;;5.80;69.00;;;;;;5014705;28;20042;-74
2023/12/06 05:29:48;;;;;;;0.60;0.60;;;5.80;68.90;;;;;;5014875;28;20492;-75
2023/12/06 05:32:13;;;;;;;0.70;0.70;;;5.80;68.90;;;;;;4997267;28;20034;-75
2023/12/06 05:34:39;;;;;;;0.60;0.60;;;5.80;68.90;;;;;;4997116;28;20026;-75
2023/12/06 05:37:04;;;;;;;0.50;0.50;;;5.80;68.90;;;;;;5014900;28;20038;-75
2023/12/06 05:39:31;;;;;;;2.33;1.27;;;5.80;68.80;;;;;;5014266;28;20056;-75
2023/12/06 05:41:56;;;;;;;0.50;0.50;;;5.80;68.80;;;;;;5014844;28;20032;-75
2023/12/06 05:44:22;;;;;;;1.13;1.00;;;5.80;68.90;;;;;;5014603;28;20033;-75
2023/12/06 05:46:48;;;;;;;0.82;0.82;;;5.80;68.90;;;;;;5015029;28;20044;-75
2023/12/06 05:49:13;;;;;;;0.73;0.73;;;5.80;69.00;;;;;;5014580;28;20032;-75
2023/12/06 05:51:39;;;;;;;0.70;0.70;;;5.80;68.90;;;;;;4997285;28;20087;-75
2023/12/06 05:54:04;;;;;;;1.05;1.05;;;5.80;68.90;;;;;;5014963;28;20022;-75
2023/12/06 05:56:30;;;;;;;0.73;0.73;;;5.80;68.90;;;;;;5006969;28;20174;-74
2023/12/06 05:58:55;;;;;;;0.60;0.60;;;5.80;68.90;;;;;;4995092;28;20042;-75
2023/12/06 06:01:21;;;;;;;0.60;0.60;;;5.80;68.90;;;;;;4995364;28;20116;-75
2023/12/06 06:03:46;;;;;;;0.77;0.77;;;5.80;69.00;;;;;;4996027;28;20023;-74
2023/12/06 06:06:12;;;;;;;3.20;1.00;;;5.80;68.90;;;;;;4994928;28;20062;-75
2023/12/06 06:08:37;;;;;;;0.60;0.60;;;5.80;68.90;;;;;;4994716;28;20442;-75
2023/12/06 06:11:04;;;;;;;0.40;0.40;;;5.80;68.90;;;;;;4994268;28;20026;-75
2023/12/06 06:13:30;;;;;;;2.17;1.98;;;5.80;68.90;;;;;;4994382;28;20089;-75
2023/12/06 06:15:56;;;;;;;0.50;0.50;;;5.80;68.90;;;;;;4993827;28;20082;-74
2023/12/06 06:18:22;;;;;;;1.23;1.20;;;5.80;69.00;;;;;;4993793;28;20034;-75
2023/12/06 06:20:48;;;;;;;0.70;0.70;;;5.80;69.00;;;;;;4976853;28;20026;-75
2023/12/06 06:23:13;;;;;;;1.35;1.25;;;5.80;69.00;;;;;;4993705;28;20030;-75
2023/12/06 06:25:39;;;;;;;1.02;1.00;;;5.80;69.10;;;;;;4994820;28;20026;-75
2023/12/06 06:28:05;;;;;;;0.65;0.65;;;5.80;69.20;;;;;;4996149;28;20042;-75
2023/12/06 06:30:30;;;;;;;0.65;0.65;;;5.80;69.10;;;;;;4977371;28;20023;-75
2023/12/06 06:32:57;;;;;;;1.13;1.13;;;5.80;69.20;;;;;;4995631;28;20034;-75
2023/12/06 06:35:22;;;;;;;0.70;0.70;;;5.80;69.10;;;;;;4996196;28;20082;-74
2023/12/06 06:37:48;;;;;;;0.63;0.63;;;5.80;69.10;;;;;;4996380;28;20073;-75
2023/12/06 06:40:14;;;;;;;0.50;0.50;;;5.80;69.10;;;;;;4996607;28;20030;-75
2023/12/06 06:42:40;;;;;;;0.70;0.70;;;5.80;69.10;;;;;;4997118;28;20056;-75
2023/12/06 06:45:08;;;;;;;0.50;0.50;;;5.80;69.10;;;;;;4997985;28;20097;-75
2023/12/06 06:47:36;;;;;;;0.52;0.52;;;5.80;69.10;;;;;;5001575;28;20084;-75
2023/12/06 06:50:06;;;;;;;0.85;0.85;;;5.80;69.10;;;;;;4998219;28;20059;-74
2023/12/06 06:52:35;;;;;;;0.73;0.73;;;5.80;69.10;;;;;;4999358;28;20041;-74
2023/12/06 06:55:00;;;;;;;1.08;1.08;;;5.80;69.10;;;;;;4981844;28;20037;-75
2023/12/06 06:57:26;;;;;;;0.52;0.52;;;5.80;69.10;;;;;;5014500;28;20038;-74
2023/12/06 06:59:51;;;;;;;1.17;1.17;;;5.80;69.20;;;;;;5017912;28;20460;-76
2023/12/06 07:02:17;;;;;;;0.47;0.47;;;5.80;69.10;;;;;;5020283;28;20060;-74
2023/12/06 07:04:46;;;;;;;0.65;0.65;;;5.80;69.10;;;;;;5020381;28;20041;-74
2023/12/06 07:07:12;;;;;;;0.60;0.60;;;5.80;69.10;;;;;;5020928;28;20041;-74
2023/12/06 07:09:37;;;;;;;0.55;0.55;;;5.90;69.20;;;;;;5021293;28;20034;-74
2023/12/06 07:12:03;;;;;;;1.20;1.05;;;5.90;69.20;;;;;;5020805;28;20026;-76
2023/12/06 07:14:29;;;;;;;1.38;1.30;;;5.90;69.10;;;;;;5019838;28;20034;-76
2023/12/06 07:16:55;;;;;;;0.88;0.88;;;5.90;69.00;;;;;;5019495;28;20037;-74
2023/12/06 07:19:21;;;;;;;0.95;0.95;;;5.90;69.00;;;;;;5016564;28;20034;-74
2023/12/06 07:21:47;;;;;;;0.65;0.65;;;5.90;68.90;;;;;;5015747;28;20044;-74
2023/12/06 07:24:13;;;;;;;0.50;0.50;;;5.90;68.90;;;;;;5015791;28;20085;-76
2023/12/06 07:26:39;;;;;;;0.68;0.68;;;5.90;68.80;;;;;;5015764;28;20034;-75
2023/12/06 07:29:05;;;;;;;0.77;0.77;;;5.90;68.80;;;;;;4998196;28;20532;-75
2023/12/06 07:31:31;;;;;;;1.95;1.85;;;5.90;68.90;;;;;;5015652;28;20033;-75
2023/12/06 07:33:57;;;;;;;1.17;1.08;;;5.90;69.00;;;;;;5014910;28;20026;-75
2023/12/06 07:36:23;;;;;;;0.70;0.70;;;5.90;68.90;;;;;;5011480;28;20397;-75
2023/12/06 07:38:49;;;;;;;4.80;1.50;;;5.90;68.90;;;;;;4993930;28;20034;-76
2023/12/06 07:41:14;;;;;;;0.70;0.70;;;5.80;69.00;;;;;;4993642;28;20035;-76
2023/12/06 07:43:40;;;;;;;1.17;1.17;;;5.80;69.00;;;;;;4975885;28;20121;-77
2023/12/06 07:46:05;;;;;;;1.13;1.13;;;5.90;69.00;;;;;;4998555;28;20116;-76
2023/12/06 07:48:33;;;;;;;0.50;0.50;;;5.90;69.00;;;;;;5006026;28;20029;-73
2023/12/06 07:50:59;;;;;;;1.45;1.38;;;5.80;69.00;;;;;;5004609;28;20014;-72
2023/12/06 07:53:25;;;;;;;0.73;0.73;;;5.80;69.00;;;;;;5004923;28;20483;-70
2023/12/06 07:55:54;;;;;;;0.63;0.63;;;5.90;69.10;;;;;;5005674;28;20432;-71
2023/12/06 07:58:20;;;;;;;2.92;1.85;;;5.90;69.00;;;;;;5002043;28;20022;-71
2023/12/06 08:00:46;;;;;;;0.50;0.50;;;5.90;69.00;;;;;;5011231;28;20466;-72
2023/12/06 08:03:11;;;;;;;0.85;0.85;;;5.90;68.90;;;;;;5009458;28;20029;-71
2023/12/06 08:05:38;;;;;;;1.73;1.63;;;5.90;69.00;;;;;;5009247;28;20032;-72
2023/12/06 08:08:05;;;;;;;2.35;2.15;;;5.90;69.00;;;;;;5011556;28;20409;-72
2023/12/06 08:10:32;;;;;;;0.93;0.93;;;5.90;69.00;;;;;;5008362;28;20032;-71
2023/12/06 08:12:58;;;;;;;0.70;0.70;;;5.90;69.00;;;;;;5011253;28;20488;-71
2023/12/06 08:15:24;;;;;;;0.68;0.68;;;5.90;69.00;;;;;;5008493;28;20030;-71
2023/12/06 08:17:50;;;;;;;0.93;0.93;;;5.90;69.00;;;;;;5006403;28;20164;-72
2023/12/06 08:20:15;;;;;;;0.50;0.50;;;5.90;69.10;;;;;;5008831;28;20053;-72
2023/12/06 08:22:41;;;;;;;0.90;0.90;;;6.00;69.20;;;;;;5009505;28;20049;-73
2023/12/06 08:25:07;;;;;;;1.33;1.17;;;6.00;69.10;;;;;;5011060;28;20022;-72
2023/12/06 08:27:34;;;;;;;1.45;1.15;;;6.00;69.20;;;;;;5010037;28;20026;-72
2023/12/06 08:30:00;;;;;;;1.48;1.25;;;6.00;69.20;;;;;;5010739;28;20040;-71
2023/12/06 08:32:26;;;;;;;4.03;2.47;;;6.00;69.20;;;;;;5006594;28;20454;-72
2023/12/06 08:34:52;;;;;;;1.27;1.23;;;6.00;69.20;;;;;;5002176;28;20026;-72
2023/12/06 08:37:18;;;;;;;2.80;2.58;;;6.10;69.20;;;;;;5010895;28;20454;-72
2023/12/06 08:39:44;;;;;;;0.70;0.70;;;6.10;69.20;;;;;;5010568;28;20037;-73
2023/12/06 08:42:12;;;;;;;1.63;1.52;;;6.10;69.10;;;;;;5011187;28;20481;-72
2023/12/06 08:44:38;;;;;;;0.55;0.55;;;6.10;69.10;;;;;;5010538;28;20025;-72
2023/12/06 08:47:04;;;;;;;0.75;0.75;;;6.10;69.20;;;;;;5003270;28;20038;-72
2023/12/06 08:49:30;;;;;;;0.65;0.65;;;6.10;69.20;;;;;;4994499;28;20105;-71
2023/12/06 08:51:56;;;;;;;0.50;0.50;;;6.20;69.30;;;;;;5012642;28;20431;-72
2023/12/06 08:54:21;;;;;;;0.68;0.68;;;6.20;69.20;;;;;;5014204;28;20030;-72
2023/12/06 08:56:47;;;;;;;1.95;1.85;;;6.20;69.20;;;;;;5015985;28;20030;-74
2023/12/06 08:59:12;;;;;;;0.95;0.95;;;6.20;69.20;;;;;;5016012;28;20049;-75
2023/12/06 09:01:38;;;;;;;1.13;1.08;;;6.20;69.30;;;;;;5014466;28;20046;-74
2023/12/06 09:04:03;;;;;;;2.42;2.22;;;6.20;69.30;;;;;;4995750;28;20030;-74
2023/12/06 09:06:29;;;;;;;2.47;1.67;;;6.30;69.30;;;;;;4995658;28;20394;-74
2023/12/06 09:08:54;;;;;;;2.08;1.85;;;6.30;69.40;;;;;;5010199;28;20197;-75
2023/12/06 09:11:21;;;;;;;0.60;0.60;;;6.30;69.40;;;;;;5013756;28;20034;-74
2023/12/06 09:13:48;;;;;;;1.55;1.45;;;6.40;69.40;;;;;;5012558;28;20017;-74
2023/12/06 09:16:14;;;;;;;2.85;1.08;;;6.40;69.40;;;;;;5013839;28;20037;-75
2023/12/06 09:18:39;;;;;;;0.95;0.95;;;6.40;69.40;;;;;;5013603;28;20029;-75
2023/12/06 09:21:05;;;;;;;0.70;0.70;;;6.40;69.40;;;;;;5012986;28;20405;-76
2023/12/06 09:23:31;;;;;;;0.68;0.68;;;6.50;69.40;;;;;;5012667;28;20057;-74
2023/12/06 09:25:59;;;;;;;0.60;0.60;;;6.50;69.40;;;;;;5013886;28;20481;-75
2023/12/06 09:28:25;;;;;;;0.50;0.50;;;6.50;69.30;;;;;;4994594;28;20549;-75
2023/12/06 09:30:51;;;;;;;0.93;0.93;;;6.50;69.20;;;;;;5012234;28;20109;-74
2023/12/06 09:33:16;;;;;;;1.30;1.20;;;6.50;69.30;;;;;;5014180;28;20110;-74
2023/12/06 09:35:42;;;;;;;0.50;0.50;;;6.50;69.40;;;;;;5013358;28;20026;-74
2023/12/06 09:38:08;;;;;;;0.47;0.47;;;6.60;69.40;;;;;;4992429;28;20478;-74
2023/12/06 09:40:36;;;;;;;1.15;1.15;;;6.60;69.30;;;;;;5002482;28;20062;-74
2023/12/06 09:43:05;;;;;;;1.13;1.13;;;6.60;69.20;;;;;;4976380;28;20066;-74
2023/12/06 09:45:31;;;;;;;1.13;1.13;;;6.60;69.20;;;;;;4997622;28;20026;-74
2023/12/06 09:47:57;;;;;;;0.80;0.80;;;6.60;69.20;;;;;;4995324;28;20133;-74
2023/12/06 09:50:26;;;;;;;1.33;1.23;;;6.60;69.10;;;;;;4983774;28;20456;-74
2023/12/06 09:52:53;;;;;;;0.50;0.50;;;6.60;69.10;;;;;;5013898;28;20097;-75
2023/12/06 09:55:26;;;;;;;0.50;0.50;;;6.60;69.10;;;;;;4986481;28;20108;-74
2023/12/06 09:57:52;;;;;;;1.10;0.98;;;6.60;69.10;;;;;;4982077;28;20042;-74
2023/12/06 10:00:18;;;;;;;1.58;1.48;;;6.60;69.10;;;;;;5005008;28;20465;-74
2023/12/06 10:02:54;;;;;;;0.47;0.47;;;6.60;69.10;;;;;;4994645;28;20109;-74
2023/12/06 10:05:20;;;;;;;0.82;0.82;;;6.70;69.30;;;;;;4995124;28;20109;-72
2023/12/06 10:07:46;;;;;;;0.50;0.50;;;6.70;69.50;;;;;;4993485;28;20031;-71
2023/12/06 10:10:15;;;;;;;1.60;1.48;;;6.70;69.50;;;;;;4992959;28;20026;-71
2023/12/06 10:12:55;;;;;;;0.80;0.80;;;6.70;69.50;;;;;;5004879;28;20034;-71
2023/12/06 10:15:22;;;;;;;0.85;0.73;;;6.80;69.70;;;;;;4995024;28;20490;-71
2023/12/06 10:17:48;;;;;;;1.73;1.63;;;6.80;69.70;;;;;;5012838;28;20087;-71
2023/12/06 10:20:14;;;;;;;0.80;0.80;;;6.80;69.80;;;;;;5012354;28;20032;-71
2023/12/06 10:22:41;;;;;;;1.33;1.23;;;6.90;69.80;;;;;;5012945;28;20061;-71
2023/12/06 10:25:10;;;;;;;1.58;1.45;;;7.00;70.00;;;;;;5012396;28;20033;-71
2023/12/06 10:27:36;;;;;;;1.33;1.23;;;7.00;69.90;;;;;;5012542;28;20137;-71
2023/12/06 10:30:04;;;;;;;0.55;0.55;;;7.10;70.00;;;;;;4994434;28;20557;-72
2023/12/06 10:32:31;;;;;;;0.40;0.40;;;7.10;70.00;;;;;;4995103;28;20512;-70
2023/12/06 10:35:03;;;;;;;0.55;0.55;;;7.10;70.00;;;;;;5012319;28;20022;-71
2023/12/06 10:37:28;;;;;;;0.60;0.60;;;7.10;70.00;;;;;;5012709;28;20037;-71
2023/12/06 10:40:00;;;;;;;0.52;0.52;;;7.20;69.90;;;;;;5011967;28;20026;-71
2023/12/06 10:42:32;;;;;;;0.60;0.60;;;7.20;70.00;;;;;;5028324;28;20094;-74
2023/12/06 10:45:00;;;;;;;0.60;0.60;;;7.20;70.00;;;;;;5032120;28;20038;-73
2023/12/06 10:47:26;;;;;;;0.77;0.77;;;7.30;69.90;;;;;;5032480;28;20095;-74
2023/12/06 10:49:53;;;;;;;0.50;0.50;;;7.30;70.00;;;;;;5032490;28;20029;-74
2023/12/06 10:52:20;;;;;;;0.60;0.60;;;7.30;70.00;;;;;;5032874;28;20010;-74
2023/12/06 10:54:47;;;;;;;1.75;1.65;;;7.40;70.10;;;;;;5035404;28;20041;-74
2023/12/06 10:57:12;;;;;;;0.95;0.95;;;7.40;69.90;;;;;;5000409;28;20036;-71
2023/12/06 10:59:41;;;;;;;1.35;1.25;;;7.40;69.80;;;;;;5012057;28;20034;-72
2023/12/06 11:02:10;;;;;;;0.77;0.77;;;7.40;69.70;;;;;;5012033;28;20022;-72
2023/12/06 11:04:39;;;;;;;0.50;0.50;;;7.40;69.70;;;;;;5008837;28;20033;-72
2023/12/06 11:07:10;;;;;;;0.60;0.60;;;7.40;69.60;;;;;;5008853;28;20025;-70
2023/12/06 11:09:44;;;;;;;1.88;1.77;;;7.40;69.80;;;;;;5011157;28;20034;-71
2023/12/06 11:12:40;;;;;;;0.52;0.52;;;7.40;69.80;;;;;;5011202;28;20026;-71
2023/12/06 11:15:24;;;;;;;0.80;0.80;;;7.40;69.80;;;;;;5011425;28;20037;-71
2023/12/06 11:18:24;;;;;;;0.52;0.52;;;7.50;69.60;;;;;;5019845;28;20085;-74
2023/12/06 11:20:52;;;;;;;0.52;0.52;;;7.40;69.70;;;;;;5007892;28;20038;-75
2023/12/06 11:23:21;;;;;;;1.23;1.13;;;7.40;70.00;;;;;;5011815;28;20041;-73
2023/12/06 11:25:49;;;;;;;0.60;0.60;;;7.40;69.90;;;;;;5012877;28;20023;-73
2023/12/06 11:28:20;;;;;;;1.73;1.63;;;7.50;69.90;;;;;;5029078;28;20058;-74
2023/12/06 11:30:50;;;;;;;2.20;1.42;;;7.50;70.10;;;;;;5035176;28;20018;-74
2023/12/06 11:33:17;;;;;;;0.50;0.50;;;7.50;70.20;;;;;;5016820;28;20014;-74
2023/12/06 11:35:43;;;;;;;0.50;0.50;;;7.60;70.40;;;;;;5035531;28;20135;-74
2023/12/06 11:38:09;;;;;;;0.57;0.57;;;7.70;70.40;;;;;;5018520;28;20036;-74
2023/12/06 11:40:35;;;;;;;0.85;0.85;;;7.70;70.40;;;;;;5035725;28;20013;-74
2023/12/06 11:43:01;;;;;;;0.57;0.57;;;7.80;70.50;;;;;;5036017;28;20052;-74
2023/12/06 11:45:29;;;;;;;0.60;0.60;;;7.80;70.40;;;;;;5033250;28;20033;-74
2023/12/06 11:47:58;;;;;;;0.68;0.65;;;7.90;70.40;;;;;;5018025;28;20011;-74
2023/12/06 11:50:26;;;;;;;1.48;1.40;;;7.90;70.30;;;;;;5016239;28;20069;-74
2023/12/06 11:52:53;;;;;;;0.75;0.75;;;7.90;70.10;;;;;;5030864;28;20037;-73
2023/12/06 11:55:21;;;;;;;0.98;0.98;;;8.00;70.00;;;;;;5036303;28;20006;-74
2023/12/06 11:58:01;;;;;;;0.60;0.60;;;7.90;70.00;;;;;;5034452;28;20029;-74
2023/12/06 12:00:31;;;;;;;0.70;0.70;;;7.90;70.00;;;;;;5034618;28;20041;-74
2023/12/06 12:02:59;;;;;;;1.23;1.15;;;7.90;70.10;;;;;;5036490;28;20109;-74
2023/12/06 12:05:25;;;;;;;1.35;1.23;;;7.90;70.00;;;;;;5034875;28;20042;-74
2023/12/06 12:07:50;;;;;;;0.60;0.60;;;8.00;70.10;;;;;;5035825;28;20038;-74
2023/12/06 12:10:17;;;;;;;0.90;0.90;;;8.00;70.10;;;;;;5034777;28;20033;-74
2023/12/06 12:12:43;;;;;;;0.75;0.75;;;8.00;70.30;;;;;;5035827;28;20010;-74
2023/12/06 12:15:09;;;;;;;0.70;0.70;;;8.10;70.40;;;;;;5034848;28;20053;-74
2023/12/06 12:17:35;;;;;;;1.00;1.00;;;8.10;70.10;;;;;;5035952;28;20090;-74
2023/12/06 12:20:03;;;;;;;0.68;0.65;;;8.10;70.00;;;;;;5034454;28;20022;-74
2023/12/06 12:22:29;;;;;;;0.50;0.50;;;8.10;69.80;;;;;;5022491;28;20018;-74
2023/12/06 12:24:55;;;;;;;0.60;0.60;;;8.00;69.90;;;;;;5031936;28;20021;-74
2023/12/06 12:27:21;;;;;;;0.60;0.60;;;8.00;69.90;;;;;;5016545;28;20038;-74
2023/12/06 12:29:54;;;;;;;1.02;1.02;;;8.00;69.70;;;;;;5024134;28;20017;-74
2023/12/06 12:32:19;;;;;;;0.60;0.60;;;8.00;69.70;;;;;;5039763;28;20025;-74
2023/12/06 12:34:45;;;;;;;0.50;0.50;;;8.00;69.80;;;;;;5038376;28;20034;-74
2023/12/06 12:37:11;;;;;;;0.70;0.70;;;8.00;69.70;;;;;;5039420;28;20045;-74
2023/12/06 12:39:37;;;;;;;0.50;0.50;;;8.00;69.80;;;;;;5035933;28;20014;-74
2023/12/06 12:42:05;;;;;;;1.48;1.38;;;8.00;69.80;;;;;;5036494;28;20033;-74
2023/12/06 12:44:30;;;;;;;1.02;1.02;;;7.90;69.60;;;;;;5035700;28;20036;-76
2023/12/06 12:46:56;;;;;;;0.50;0.50;;;7.90;69.10;;;;;;5017069;28;20456;-75
2023/12/06 12:49:23;;;;;;;0.50;0.50;;;7.80;68.50;;;;;;5018572;28;20453;-76
2023/12/06 12:51:49;;;;;;;0.70;0.68;;;7.70;68.10;;;;;;5023301;28;20026;-76
2023/12/06 12:54:16;;;;;;;0.60;0.60;;;7.60;68.10;;;;;;5014965;28;20093;-75